createdAt,value
2023-03-04T00:00:42.213Z,32.97
2023-03-04T00:03:09.383Z,35.30
2023-03-04T00:05:37.953Z,34.00
2023-03-04T00:08:04.544Z,32.97
2023-03-04T00:10:30.987Z,34.47
2023-03-04T00:12:57.432Z,32.90
2023-03-04T00:15:25.312Z,31.70
2023-03-04T00:17:51.652Z,33.67
2023-03-04T00:20:18.140Z,34.03
2023-03-04T00:22:45.630Z,34.23
2023-03-04T00:25:12.239Z,35.13
2023-03-04T00:27:41.244Z,34.03
2023-03-04T00:30:08.585Z,36.07
2023-03-04T00:32:35.118Z,34.60
2023-03-04T00:35:01.876Z,34.73
2023-03-04T00:37:28.698Z,35.37
2023-03-04T00:39:55.618Z,34.17
2023-03-04T00:42:22.044Z,35.47
2023-03-04T00:44:48.574Z,34.27
2023-03-04T00:47:15.160Z,35.30
2023-03-04T00:49:41.632Z,33.17
2023-03-04T00:52:08.251Z,33.53
2023-03-04T00:54:34.963Z,34.00
2023-03-04T00:57:01.602Z,32.47
2023-03-04T00:59:28.030Z,33.90
2023-03-04T01:01:54.929Z,32.97
2023-03-04T01:04:21.632Z,34.90
2023-03-04T01:06:48.094Z,33.43
2023-03-04T01:09:14.728Z,33.40
2023-03-04T01:11:41.352Z,32.70
2023-03-04T01:14:07.840Z,31.43
2023-03-04T01:16:34.981Z,33.90
2023-03-04T01:19:02.216Z,32.87
2023-03-04T01:21:28.810Z,32.53
2023-03-04T01:23:55.491Z,33.87
2023-03-04T01:26:22.620Z,34.23
2023-03-04T01:28:49.311Z,33.00
2023-03-04T01:31:16.335Z,33.57
2023-03-04T01:33:42.832Z,33.00
2023-03-04T01:36:09.535Z,33.93
2023-03-04T01:38:36.011Z,35.80
2023-03-04T01:41:02.867Z,35.67
2023-03-04T01:43:31.967Z,34.63
2023-03-04T01:45:58.913Z,34.50
2023-03-04T01:48:30.632Z,35.57
2023-03-04T01:50:57.798Z,33.43
2023-03-04T01:53:26.526Z,35.53
2023-03-04T01:55:56.642Z,33.93
2023-03-04T01:58:28.530Z,36.20
2023-03-04T02:00:54.935Z,35.37
2023-03-04T02:03:22.031Z,38.07
2023-03-04T02:05:53.508Z,37.27
2023-03-04T02:08:23.082Z,35.63
2023-03-04T02:10:51.635Z,35.37
2023-03-04T02:13:18.608Z,35.73
2023-03-04T02:15:46.521Z,34.87
2023-03-04T02:18:20.115Z,34.43
2023-03-04T02:21:04.889Z,33.47
2023-03-04T02:23:57.060Z,36.20
2023-03-04T02:26:28.977Z,33.30
2023-03-04T02:28:57.718Z,33.13
2023-03-04T02:31:35.860Z,34.50
2023-03-04T02:34:06.700Z,33.37
2023-03-04T02:39:05.438Z,30.70
2023-03-04T02:41:32.629Z,32.50
2023-03-04T02:43:59.419Z,34.70
2023-03-04T02:46:25.899Z,33.97
2023-03-04T02:48:53.059Z,35.13
2023-03-04T02:51:19.821Z,35.20
2023-03-04T02:53:46.468Z,35.63
2023-03-04T02:56:13.110Z,36.20
2023-03-04T02:58:39.587Z,35.70
2023-03-04T03:01:06.608Z,35.97
2023-03-04T03:03:33.239Z,37.97
2023-03-04T03:05:59.851Z,41.47
2023-03-04T03:08:26.486Z,40.23
2023-03-04T03:10:53.298Z,40.03
2023-03-04T03:13:19.969Z,37.97
2023-03-04T03:15:48.459Z,39.00
2023-03-04T03:18:16.618Z,39.92
2023-03-04T03:20:43.225Z,37.40
2023-03-04T03:23:10.102Z,36.53
2023-03-04T03:25:36.598Z,37.10
2023-03-04T03:28:03.676Z,39.87
2023-03-04T03:30:30.827Z,39.47
2023-03-04T03:32:57.362Z,40.43
2023-03-04T03:35:23.986Z,39.27
2023-03-04T03:37:50.462Z,36.90
2023-03-04T03:40:16.968Z,36.27
2023-03-04T03:42:43.490Z,35.97
2023-03-04T03:45:10.490Z,36.97
2023-03-04T03:47:37.295Z,37.03
2023-03-04T03:50:05.065Z,35.53
2023-03-04T03:52:31.532Z,36.90
2023-03-04T03:55:00.053Z,36.73
2023-03-04T03:57:29.773Z,35.47
2023-03-04T03:59:57.019Z,35.93
2023-03-04T04:02:23.915Z,36.67
2023-03-04T04:04:50.463Z,34.83
2023-03-04T04:07:17.563Z,37.87
2023-03-04T04:09:44.104Z,36.93
2023-03-04T04:12:13.296Z,37.33
2023-03-04T04:14:40.049Z,37.80
2023-03-04T04:17:06.629Z,37.33
2023-03-04T04:19:33.339Z,38.63
2023-03-04T04:21:59.846Z,36.87
2023-03-04T04:24:26.466Z,36.87
2023-03-04T04:26:52.998Z,38.77
2023-03-04T04:29:19.832Z,38.40
2023-03-04T04:31:46.414Z,37.77
2023-03-04T04:34:15.290Z,38.17
2023-03-04T04:36:41.992Z,35.13
2023-03-04T04:39:08.432Z,38.33
2023-03-04T04:41:38.261Z,37.50
2023-03-04T04:44:05.104Z,37.80
2023-03-04T04:46:31.558Z,34.87
2023-03-04T04:48:58.148Z,35.73
2023-03-04T04:51:24.576Z,36.03
2023-03-04T04:53:51.329Z,37.37
2023-03-04T04:56:24.222Z,37.80
2023-03-04T04:58:50.796Z,36.90
2023-03-04T05:01:17.548Z,39.30
2023-03-04T05:03:44.093Z,36.17
2023-03-04T05:06:12.318Z,36.80
2023-03-04T05:08:39.351Z,36.43
2023-03-04T05:11:07.507Z,36.47
2023-03-04T05:13:35.085Z,35.27
2023-03-04T05:16:02.130Z,36.40
2023-03-04T05:18:29.102Z,36.13
2023-03-04T05:21:01.617Z,37.93
2023-03-04T05:23:30.748Z,36.03
2023-03-04T05:25:57.229Z,38.13
2023-03-04T05:28:23.835Z,36.90
2023-03-04T05:30:50.363Z,38.13
2023-03-04T05:33:18.165Z,36.93
2023-03-04T05:35:45.989Z,37.40
2023-03-04T05:38:15.182Z,38.73
2023-03-04T05:40:42.679Z,37.97
2023-03-04T05:43:10.085Z,36.43
2023-03-04T05:45:37.060Z,36.60
2023-03-04T05:48:04.065Z,34.40
2023-03-04T05:50:31.535Z,36.23
2023-03-04T05:52:57.958Z,36.50
2023-03-04T05:55:25.062Z,34.60
2023-03-04T05:57:51.549Z,33.77
2023-03-04T06:00:18.362Z,34.87
2023-03-04T06:02:45.832Z,37.00
2023-03-04T06:05:14.690Z,34.87
2023-03-04T06:07:42.395Z,36.63
2023-03-04T06:10:09.618Z,34.63
2023-03-04T06:12:36.163Z,34.93
2023-03-04T06:15:02.647Z,35.27
2023-03-04T06:17:30.480Z,34.17
2023-03-04T06:19:57.039Z,36.07
2023-03-04T06:22:24.196Z,36.47
2023-03-04T06:24:51.106Z,35.27
2023-03-04T06:27:17.693Z,34.70
2023-03-04T06:29:44.215Z,34.53
2023-03-04T06:32:10.749Z,35.30
2023-03-04T06:34:37.218Z,35.10
2023-03-04T06:37:03.825Z,33.73
2023-03-04T06:39:30.233Z,36.83
2023-03-04T06:41:57.078Z,33.83
2023-03-04T06:44:23.892Z,34.13
2023-03-04T06:46:50.425Z,34.53
2023-03-04T06:49:17.317Z,36.63
2023-03-04T06:51:43.799Z,35.87
2023-03-04T06:54:10.634Z,36.50
2023-03-04T06:56:37.197Z,35.63
2023-03-04T06:59:03.806Z,35.70
2023-03-04T07:01:30.378Z,36.77
2023-03-04T07:03:57.598Z,32.80
2023-03-04T07:06:27.097Z,37.50
2023-03-04T07:08:54.064Z,39.40
2023-03-04T07:11:21.480Z,39.00
2023-03-04T07:13:48.528Z,37.30
2023-03-04T07:16:17.649Z,37.03
2023-03-04T07:18:45.018Z,36.20
2023-03-04T07:21:13.409Z,36.33
2023-03-04T07:23:40.633Z,37.10
2023-03-04T07:26:07.907Z,38.37
2023-03-04T07:28:35.449Z,36.27
2023-03-04T07:31:29.346Z,35.67
2023-03-04T07:34:01.412Z,37.03
2023-03-04T07:36:28.213Z,35.90
2023-03-04T07:38:55.277Z,35.33
2023-03-04T07:41:23.895Z,35.57
2023-03-04T07:43:51.095Z,38.30
2023-03-04T07:46:19.011Z,38.03
2023-03-04T07:48:46.137Z,35.07
2023-03-04T07:51:18.829Z,38.40
2023-03-04T07:53:48.368Z,37.70
2023-03-04T07:56:22.576Z,37.10
2023-03-04T07:58:50.878Z,38.03
2023-03-04T08:01:20.816Z,37.83
2023-03-04T08:03:47.351Z,37.60
2023-03-04T08:06:16.508Z,37.73
2023-03-04T08:08:43.451Z,36.33
2023-03-04T08:11:12.738Z,37.57
2023-03-04T08:13:39.241Z,38.70
2023-03-04T08:16:06.940Z,33.83
2023-03-04T08:18:33.965Z,36.00
2023-03-04T08:21:00.485Z,34.40
2023-03-04T08:23:27.142Z,34.83
2023-03-04T08:25:53.778Z,33.87
2023-03-04T08:28:20.514Z,32.77
2023-03-04T08:30:53.251Z,34.03
2023-03-04T08:33:19.925Z,30.20
2023-03-04T08:35:46.470Z,32.90
2023-03-04T08:38:13.017Z,33.23
2023-03-04T08:40:39.771Z,27.83
2023-03-04T08:43:06.257Z,27.77
2023-03-04T08:45:32.661Z,24.90
2023-03-04T08:47:59.204Z,26.73
2023-03-04T08:50:25.683Z,22.97
2023-03-04T08:52:52.091Z,25.07
2023-03-04T08:55:21.513Z,23.53
2023-03-04T08:57:47.929Z,23.00
2023-03-04T09:00:15.040Z,25.13
2023-03-04T09:02:41.755Z,24.10
2023-03-04T09:05:09.898Z,24.20
2023-03-04T09:07:36.462Z,22.63
2023-03-04T09:10:04.206Z,21.63
2023-03-04T09:12:30.987Z,19.63
2023-03-04T09:15:10.145Z,21.77
2023-03-04T09:17:37.997Z,23.00
2023-03-04T09:20:05.525Z,20.70
2023-03-04T09:22:32.034Z,22.80
2023-03-04T09:24:58.818Z,20.60
2023-03-04T09:27:25.407Z,18.30
2023-03-04T09:29:51.861Z,18.37
2023-03-04T09:32:18.706Z,16.73
2023-03-04T09:34:45.196Z,18.87
2023-03-04T09:37:11.818Z,17.70
2023-03-04T09:39:38.291Z,19.17
2023-03-04T09:42:07.905Z,18.10
2023-03-04T09:44:41.059Z,20.33
2023-03-04T09:47:12.739Z,18.10
2023-03-04T09:49:42.247Z,19.77
2023-03-04T09:52:22.102Z,19.60
2023-03-04T09:55:12.825Z,19.07
2023-03-04T09:57:54.554Z,18.27
2023-03-04T10:00:32.685Z,18.30
2023-03-04T10:03:16.647Z,19.23
2023-03-04T10:06:01.242Z,20.27
2023-03-04T10:08:33.673Z,20.40
2023-03-04T10:11:01.806Z,20.90
2023-03-04T10:13:41.005Z,21.17
2023-03-04T10:16:11.996Z,21.37
2023-03-04T10:18:49.767Z,21.87
2023-03-04T10:21:51.489Z,19.20
2023-03-04T10:24:20.674Z,19.43
2023-03-04T10:26:51.655Z,21.90
2023-03-04T10:31:46.679Z,19.63
2023-03-04T10:34:15.245Z,21.40
2023-03-04T10:36:56.572Z,21.33
2023-03-04T10:39:31.373Z,21.57
2023-03-04T10:42:01.590Z,22.03
2023-03-04T10:44:30.048Z,21.55
2023-03-04T10:46:58.508Z,23.10
2023-03-04T10:49:26.891Z,23.20
2023-03-04T10:51:56.515Z,23.73
2023-03-04T10:54:23.901Z,21.80
2023-03-04T10:56:57.429Z,22.17
2023-03-04T10:59:48.827Z,21.43
2023-03-04T11:02:38.331Z,22.10
2023-03-04T11:05:21.861Z,23.20
2023-03-04T11:07:57.034Z,23.67
2023-03-04T11:10:32.194Z,22.97
2023-03-04T11:13:03.543Z,21.87
2023-03-04T11:15:53.531Z,22.50
2023-03-04T11:18:33.975Z,22.00
2023-03-04T11:21:01.407Z,21.25
2023-03-04T11:23:39.973Z,21.83
2023-03-04T11:26:16.417Z,27.33
2023-03-04T11:28:51.982Z,22.75
2023-03-04T11:31:40.841Z,23.87
2023-03-04T11:34:30.156Z,23.48
2023-03-04T11:37:16.971Z,22.90
2023-03-04T11:39:57.399Z,25.23
2023-03-04T11:42:49.363Z,25.75
2023-03-04T11:45:29.233Z,25.15
2023-03-04T11:48:17.755Z,26.73
2023-03-04T11:50:49.950Z,26.58
2023-03-04T11:53:38.329Z,26.17
2023-03-04T11:56:22.991Z,25.08
2023-03-04T11:59:26.384Z,27.50
2023-03-04T12:02:14.703Z,26.98
2023-03-04T12:04:49.722Z,27.40
2023-03-04T12:07:59.085Z,28.10
2023-03-04T12:10:38.643Z,26.53
2023-03-04T12:13:29.593Z,27.80
2023-03-04T12:16:19.674Z,26.95
2023-03-04T12:18:55.280Z,26.42
2023-03-04T12:21:27.387Z,28.98
2023-03-04T12:24:27.396Z,29.38
2023-03-04T12:27:20.250Z,27.47
2023-03-04T12:29:59.846Z,28.30
2023-03-04T12:33:08.961Z,27.40
2023-03-04T12:35:53.196Z,29.40
2023-03-04T12:38:25.723Z,29.87
2023-03-04T12:41:14.278Z,30.38
2023-03-04T12:44:14.383Z,31.58
2023-03-04T12:47:02.634Z,28.67
2023-03-04T12:49:51.248Z,30.25
2023-03-04T12:53:00.101Z,29.87
2023-03-04T12:55:37.982Z,30.73
2023-03-04T12:58:26.048Z,31.27
2023-03-04T13:00:59.475Z,30.77
2023-03-04T13:03:32.198Z,29.97
2023-03-04T13:06:11.417Z,29.17
2023-03-04T13:08:46.005Z,29.83
2023-03-04T13:11:27.441Z,30.90
2023-03-04T13:14:12.305Z,32.30
2023-03-04T13:16:59.741Z,32.00
2023-03-04T13:19:50.861Z,31.43
2023-03-04T13:24:54.881Z,34.17
2023-03-04T13:28:03.199Z,32.47
2023-03-04T13:30:32.778Z,33.20
2023-03-04T13:33:22.087Z,32.30
2023-03-04T13:35:55.061Z,34.23
2023-03-04T13:38:27.648Z,33.93
2023-03-04T13:41:00.204Z,32.73
2023-03-04T13:43:36.463Z,34.87
2023-03-04T13:46:18.080Z,35.67
2023-03-04T13:48:50.486Z,36.10
2023-03-04T13:51:28.992Z,35.07
2023-03-04T13:53:59.366Z,35.47
2023-03-04T13:56:28.139Z,35.97
2023-03-04T13:59:24.345Z,33.90
2023-03-04T14:02:13.139Z,33.77
2023-03-04T14:04:42.668Z,32.90
2023-03-04T14:07:30.139Z,34.83
2023-03-04T14:10:18.096Z,33.37
2023-03-04T14:12:59.099Z,35.17
2023-03-04T14:18:01.182Z,33.47
2023-03-04T14:20:31.119Z,33.37
2023-03-04T14:22:59.152Z,33.57
2023-03-04T14:25:31.882Z,31.90
2023-03-04T14:28:17.344Z,32.00
2023-03-04T14:30:53.132Z,33.27
2023-03-04T14:33:23.145Z,28.87
2023-03-04T14:35:53.285Z,28.25
2023-03-04T14:38:42.161Z,28.02
2023-03-04T14:41:21.085Z,27.33
2023-03-04T14:43:57.703Z,24.77
2023-03-04T14:46:30.609Z,24.63
2023-03-04T14:48:58.127Z,24.87
2023-03-04T14:51:48.912Z,26.07
2023-03-04T14:54:59.195Z,23.95
2023-03-04T14:57:28.811Z,24.95
2023-03-04T14:59:55.908Z,23.33
2023-03-04T15:02:37.178Z,20.27
2023-03-04T15:05:17.782Z,21.40
2023-03-04T15:07:51.904Z,20.02
2023-03-04T15:10:23.215Z,20.50
2023-03-04T15:12:55.802Z,21.13
2023-03-04T15:15:39.242Z,20.70
2023-03-04T15:18:18.137Z,21.23
2023-03-04T15:20:53.450Z,21.10
2023-03-04T15:23:20.086Z,23.20
2023-03-04T15:25:46.543Z,23.30
2023-03-04T15:28:18.062Z,24.17
2023-03-04T15:30:44.635Z,22.97
2023-03-04T15:33:12.123Z,25.17
2023-03-04T15:35:39.752Z,24.37
2023-03-04T15:38:07.304Z,25.07
2023-03-04T15:40:36.946Z,25.13
2023-03-04T15:43:05.686Z,24.57
2023-03-04T15:45:37.579Z,25.63
2023-03-04T15:48:10.036Z,36.07
2023-03-04T15:50:38.891Z,27.80
2023-03-04T15:53:10.462Z,24.20
2023-03-04T15:55:37.212Z,28.20
2023-03-04T15:58:03.887Z,23.73
2023-03-04T16:00:30.418Z,25.97
2023-03-04T16:02:56.965Z,25.03
2023-03-04T16:05:23.881Z,25.50
2023-03-04T16:07:51.252Z,23.63
2023-03-04T16:10:27.052Z,22.53
2023-03-04T16:12:54.438Z,22.60
2023-03-04T16:15:26.324Z,23.57
2023-03-04T16:17:53.678Z,21.63
2023-03-04T16:20:23.215Z,22.10
2023-03-04T16:22:53.123Z,23.10
2023-03-04T16:25:20.953Z,24.27
2023-03-04T16:27:47.420Z,21.20
2023-03-04T16:30:25.157Z,22.83
2023-03-04T16:32:51.546Z,23.53
2023-03-04T16:35:19.742Z,24.17
2023-03-04T16:37:46.793Z,22.40
2023-03-04T16:40:19.281Z,21.97
2023-03-04T16:42:45.721Z,24.53
2023-03-04T16:45:20.097Z,22.40
2023-03-04T16:47:46.989Z,22.67
2023-03-04T16:50:25.753Z,24.13
2023-03-04T16:52:53.155Z,22.43
2023-03-04T16:55:26.459Z,25.13
2023-03-04T16:57:54.467Z,21.80
2023-03-04T17:00:22.871Z,23.13
2023-03-04T17:02:58.531Z,21.07
2023-03-04T17:05:28.389Z,21.30
2023-03-04T17:07:54.836Z,20.25
2023-03-04T17:10:22.369Z,20.57
2023-03-04T17:12:49.418Z,20.53
2023-03-04T17:15:16.163Z,20.17
2023-03-04T17:17:43.914Z,21.13
2023-03-04T17:20:16.151Z,21.03
2023-03-04T17:22:43.261Z,21.97
2023-03-04T17:25:10.962Z,21.47
2023-03-04T17:27:37.902Z,22.20
2023-03-04T17:30:06.282Z,21.83
2023-03-04T17:32:33.251Z,22.50
2023-03-04T17:35:01.314Z,23.50
2023-03-04T17:37:27.809Z,21.07
2023-03-04T17:39:54.648Z,21.97
2023-03-04T17:42:21.158Z,20.87
2023-03-04T17:44:48.086Z,22.80
2023-03-04T17:47:14.667Z,24.37
2023-03-04T17:49:41.388Z,23.17
2023-03-04T17:52:07.953Z,21.25
2023-03-04T17:54:34.391Z,34.70
2023-03-04T17:57:00.929Z,27.50
2023-03-04T17:59:27.745Z,24.87
2023-03-04T18:01:54.522Z,21.60
2023-03-04T18:04:22.194Z,22.47
2023-03-04T18:06:48.690Z,21.30
2023-03-04T18:09:15.444Z,21.67
2023-03-04T18:11:42.474Z,24.83
2023-03-04T18:14:09.002Z,23.60
2023-03-04T18:16:35.454Z,23.90
2023-03-04T18:19:02.117Z,22.93
2023-03-04T18:21:29.832Z,23.10
2023-03-04T18:23:57.220Z,22.13
2023-03-04T18:26:24.244Z,22.93
2023-03-04T18:28:52.649Z,23.37
2023-03-04T18:31:21.371Z,24.77
2023-03-04T18:33:51.982Z,24.63
2023-03-04T18:36:19.253Z,24.88
2023-03-04T18:38:45.899Z,27.07
2023-03-04T18:41:14.451Z,28.40
2023-03-04T18:43:41.262Z,27.63
2023-03-04T18:46:18.054Z,27.10
2023-03-04T18:48:52.442Z,28.27
2023-03-04T18:51:19.880Z,25.20
2023-03-04T18:53:46.314Z,23.60
2023-03-04T18:56:24.971Z,26.80
2023-03-04T18:58:51.895Z,26.13
2023-03-04T19:01:22.041Z,26.40
2023-03-04T19:03:48.870Z,27.13
2023-03-04T19:06:15.397Z,25.60
2023-03-04T19:08:41.885Z,23.80
2023-03-04T19:11:08.571Z,23.08
2023-03-04T19:13:35.147Z,25.70
2023-03-04T19:16:02.080Z,25.80
2023-03-04T19:18:29.270Z,26.57
2023-03-04T19:20:58.574Z,27.77
2023-03-04T19:23:24.991Z,28.38
2023-03-04T19:25:53.261Z,25.90
2023-03-04T19:28:19.726Z,24.47
2023-03-04T19:30:46.256Z,23.27
2023-03-04T19:33:12.745Z,25.13
2023-03-04T19:35:44.989Z,22.83
2023-03-04T19:38:12.596Z,23.33
2023-03-04T19:40:43.243Z,23.33
2023-03-04T19:43:09.852Z,22.63
2023-03-04T19:45:36.831Z,23.97
2023-03-04T19:48:07.306Z,24.13
2023-03-04T19:53:03.335Z,24.42
2023-03-04T19:55:29.806Z,23.40
2023-03-04T19:57:56.220Z,24.38
2023-03-04T20:00:24.334Z,22.63
2023-03-04T20:02:50.845Z,22.65
2023-03-04T20:05:19.673Z,24.33
2023-03-04T20:07:48.940Z,25.23
2023-03-04T20:10:16.333Z,24.70
2023-03-04T20:12:43.307Z,23.05
2023-03-04T20:15:10.808Z,24.00
2023-03-04T20:17:37.778Z,24.80
2023-03-04T20:20:05.119Z,26.17
2023-03-04T20:22:31.592Z,25.80
2023-03-04T20:24:57.966Z,26.90
2023-03-04T20:27:24.872Z,25.70
2023-03-04T20:29:51.288Z,26.03
2023-03-04T20:32:17.932Z,25.00
2023-03-04T20:34:44.814Z,25.27
2023-03-04T20:37:13.608Z,26.27
2023-03-04T20:39:41.022Z,25.13
2023-03-04T20:42:07.462Z,24.30
2023-03-04T20:44:33.849Z,26.13
2023-03-04T20:47:00.331Z,24.63
2023-03-04T20:49:28.022Z,26.10
2023-03-04T20:51:56.986Z,26.20
2023-03-04T20:54:23.927Z,22.93
2023-03-04T20:56:50.577Z,24.47
2023-03-04T20:59:17.631Z,23.50
2023-03-04T21:01:45.615Z,23.60
2023-03-04T21:04:12.509Z,25.23
2023-03-04T21:06:39.875Z,24.53
2023-03-04T21:09:11.639Z,26.25
2023-03-04T21:11:38.584Z,23.53
2023-03-04T21:14:19.555Z,23.67
2023-03-04T21:19:17.036Z,23.90
2023-03-04T21:21:43.625Z,23.33
2023-03-04T21:24:14.283Z,23.33
2023-03-04T21:26:41.129Z,24.95
2023-03-04T21:29:08.631Z,23.67
2023-03-04T21:31:40.079Z,24.43
2023-03-04T21:34:18.038Z,23.07
2023-03-04T21:36:44.674Z,25.45
2023-03-04T21:39:17.972Z,23.10
2023-03-04T21:41:45.131Z,23.97
2023-03-04T21:44:22.606Z,25.13
2023-03-04T21:47:00.003Z,24.43
2023-03-04T21:49:28.214Z,21.57
2023-03-04T21:51:54.815Z,22.83
2023-03-04T21:54:21.438Z,26.50
2023-03-04T21:56:48.539Z,23.20
2023-03-04T21:59:15.025Z,21.50
2023-03-04T22:01:42.325Z,22.83
2023-03-04T22:04:09.076Z,23.77
2023-03-04T22:06:35.893Z,23.43
2023-03-04T22:09:03.908Z,23.20
2023-03-04T22:11:33.798Z,24.80
2023-03-04T22:14:02.300Z,23.70
2023-03-04T22:16:49.023Z,23.80
2023-03-04T22:19:19.938Z,22.77
2023-03-04T22:21:48.867Z,23.60
2023-03-04T22:24:18.391Z,22.43
2023-03-04T22:26:45.105Z,23.80
2023-03-04T22:29:12.593Z,22.73
2023-03-04T22:31:40.475Z,23.50
2023-03-04T22:34:12.966Z,24.40
2023-03-04T22:36:44.450Z,24.80
2023-03-04T22:39:13.711Z,23.03
2023-03-04T22:41:40.911Z,23.33
2023-03-04T22:44:08.725Z,23.00
2023-03-04T22:46:39.099Z,22.63
2023-03-04T22:49:07.737Z,24.00
2023-03-04T22:51:34.083Z,22.80
2023-03-04T22:54:00.618Z,23.13
2023-03-04T22:56:27.206Z,22.45
2023-03-04T22:58:54.639Z,22.35
2023-03-04T23:01:21.174Z,24.07
2023-03-04T23:03:51.082Z,23.70
2023-03-04T23:06:20.632Z,23.37
2023-03-04T23:08:49.328Z,23.50
2023-03-04T23:11:23.783Z,24.15
2023-03-04T23:13:50.574Z,23.40
2023-03-04T23:16:18.166Z,22.13
2023-03-04T23:18:45.742Z,24.63
2023-03-04T23:21:18.665Z,23.27
2023-03-04T23:23:45.583Z,22.10
2023-03-04T23:26:28.053Z,22.57
2023-03-04T23:28:58.033Z,25.98
2023-03-04T23:31:24.789Z,25.65
2023-03-04T23:33:52.520Z,26.77
2023-03-04T23:36:19.374Z,23.50
2023-03-04T23:38:49.822Z,24.70
2023-03-04T23:41:21.944Z,25.55
2023-03-04T23:43:49.343Z,24.13
2023-03-04T23:46:16.170Z,24.90
2023-03-04T23:48:44.080Z,23.25
2023-03-04T23:51:10.643Z,25.08
2023-03-04T23:53:37.227Z,27.88
2023-03-04T23:56:03.832Z,23.27
2023-03-04T23:58:30.216Z,26.30
